Awosting, New Jersey
Current Conditions -  °F | °C
As of 12:53 PM on Friday 31 Oct 2014 (Local Time) from KFWN Reporting Station
Clear Clear  
Wind Chill:   Ceiling: Unl
Heat Index:   Visibility: 10mi
Dew Point:   Wind: 9mph
Humidity: 56%   Direction: 60°ENE
Pressure: 29.96"   Gusts: NA
Location:  41.1652°N, 74.3769°W
Report Text: KFWN 311653Z AUTO 06008KT 10SM CLR 09/01 A2996 RMK AO2 SLP149 T00940011
Loading
Personal Weather Stations






























Interactive Weather Map
Tropical Storm Tracking
New forecast layout! Learn more

10-Day Weather Forecast

Advertisements
Track Severe Weather on mobile